Time;durP1;ratioP1;P1;durP2;ratioP2;P2;SDS_P1;SDS_P2;PMS_P1;PMS_P2;Temp;Humidity;BMP_temperature;BMP_pressure;BME280_temperature;BME280_humidity;BME280_pressure;Samples;Min_cycle;Max_cycle;Signal;HPM_P1;HPM_P2
2022/10/25 00:00:03;;;;;;;15.47;4.47;;;12.40;91.80;;;;;;5036703;28;20176;-92
2022/10/25 00:02:33;;;;;;;16.30;5.63;;;12.30;91.70;;;;;;5035966;28;20192;-92
2022/10/25 00:04:59;;;;;;;14.00;4.93;;;12.40;91.70;;;;;;5036108;28;20179;-92
2022/10/25 00:07:24;;;;;;;15.50;5.03;;;12.40;91.70;;;;;;5035842;28;20180;-92
2022/10/25 00:09:50;;;;;;;16.97;5.40;;;12.30;91.70;;;;;;5035959;28;20186;-92
2022/10/25 00:12:16;;;;;;;15.27;5.13;;;12.20;91.90;;;;;;5036627;28;20191;-92
2022/10/25 00:14:41;;;;;;;19.20;5.83;;;12.10;92.10;;;;;;5036408;28;20176;-92
2022/10/25 00:17:07;;;;;;;15.97;5.63;;;12.00;92.30;;;;;;5041052;28;20203;-92
2022/10/25 00:19:32;;;;;;;16.33;5.80;;;12.00;92.50;;;;;;5041209;28;20646;-92
2022/10/25 00:21:58;;;;;;;19.53;6.53;;;11.90;92.60;;;;;;5040726;28;20192;-92
2022/10/25 00:24:23;;;;;;;18.27;6.30;;;11.90;92.80;;;;;;5040573;28;20668;-92
2022/10/25 00:26:49;;;;;;;23.50;6.20;;;11.90;92.90;;;;;;5040501;28;20298;-92
2022/10/25 00:29:16;;;;;;;15.77;6.17;;;11.90;93.10;;;;;;5040671;28;20218;-92
2022/10/25 00:31:41;;;;;;;17.43;6.73;;;11.90;93.20;;;;;;5039831;28;20294;-92
2022/10/25 00:34:07;;;;;;;21.33;7.20;;;12.00;93.30;;;;;;5039817;28;20223;-92
2022/10/25 00:36:32;;;;;;;22.53;6.20;;;12.10;93.30;;;;;;5039488;28;20180;-92
2022/10/25 00:38:58;;;;;;;19.73;7.67;;;12.10;93.40;;;;;;5039612;28;20214;-92
2022/10/25 00:41:28;;;;;;;16.77;8.00;;;12.20;93.40;;;;;;5040619;28;20228;-92
2022/10/25 00:44:14;;;;;;;15.90;7.37;;;12.20;93.50;;;;;;5041146;28;20187;-92
2022/10/25 00:46:40;;;;;;;19.57;6.73;;;12.30;93.40;;;;;;5040540;28;20202;-92
2022/10/25 00:49:17;;;;;;;15.07;7.00;;;12.30;93.40;;;;;;5041123;28;20184;-92
2022/10/25 00:51:52;;;;;;;15.30;6.80;;;12.40;93.30;;;;;;5040864;28;20214;-92
2022/10/25 00:54:32;;;;;;;19.47;7.17;;;12.40;93.30;;;;;;5040024;28;20255;-92
2022/10/25 00:57:01;;;;;;;14.97;6.23;;;12.40;93.20;;;;;;5039877;28;20199;-92
2022/10/25 00:59:27;;;;;;;14.60;7.17;;;12.40;93.30;;;;;;5039430;28;20238;-92
2022/10/25 01:01:54;;;;;;;21.43;7.43;;;12.50;93.30;;;;;;5040476;28;20207;-92
2022/10/25 01:04:24;;;;;;;20.63;7.00;;;12.50;93.20;;;;;;5040514;28;20183;-92
2022/10/25 01:06:51;;;;;;;21.33;7.23;;;12.40;93.20;;;;;;5041655;28;20291;-92
2022/10/25 01:09:24;;;;;;;18.97;6.90;;;12.40;93.20;;;;;;5039629;28;20179;-92
2022/10/25 01:11:50;;;;;;;17.63;7.97;;;12.50;93.20;;;;;;5039779;28;20200;-92
2022/10/25 01:14:16;;;;;;;19.13;8.47;;;12.40;93.20;;;;;;5039288;28;20524;-92
2022/10/25 01:16:56;;;;;;;22.83;7.50;;;12.30;93.20;;;;;;5039973;28;20190;-92
2022/10/25 01:49:48;;;;;;;19.90;7.40;;;12.70;92.60;;;;;;5058629;28;20175;-92
2022/10/25 01:52:18;;;;;;;17.27;7.47;;;12.70;92.60;;;;;;5041068;28;20223;-92
2022/10/25 01:54:44;;;;;;;17.50;7.37;;;12.60;92.60;;;;;;5039712;28;20223;-92
2022/10/25 01:57:27;;;;;;;22.53;9.43;;;12.60;92.60;;;;;;5038825;28;20173;-92
2022/10/25 02:00:13;;;;;;;22.17;11.03;;;12.60;92.70;;;;;;5039209;28;20203;-92
2022/10/25 02:03:01;;;;;;;17.47;8.57;;;12.60;92.70;;;;;;5040221;28;20191;-92
2022/10/25 02:05:47;;;;;;;21.40;8.07;;;12.70;92.70;;;;;;5038628;28;20164;-93
2022/10/25 02:08:28;;;;;;;23.50;9.90;;;12.60;92.60;;;;;;5038874;28;20184;-92
2022/10/25 02:11:10;;;;;;;22.20;9.37;;;12.60;92.70;;;;;;5038265;28;20294;-92
2022/10/25 02:13:47;;;;;;;15.40;9.23;;;12.60;92.70;;;;;;5038062;28;20176;-92
2022/10/25 02:16:18;;;;;;;20.27;9.03;;;12.60;92.80;;;;;;5038499;28;20717;-92
2022/10/25 02:18:49;;;;;;;18.30;9.50;;;12.70;92.80;;;;;;5040895;28;20221;-92
2022/10/25 02:21:17;;;;;;;21.53;9.37;;;12.80;93.00;;;;;;5038697;28;20196;-91
2022/10/25 02:23:44;;;;;;;23.10;10.50;;;12.80;92.90;;;;;;5039117;28;20176;-92
2022/10/25 02:26:10;;;;;;;21.17;9.17;;;12.80;92.80;;;;;;5038517;28;20176;-92
2022/10/25 02:28:38;;;;;;;17.80;9.47;;;12.80;92.80;;;;;;5038893;28;20184;-92
2022/10/25 02:31:09;;;;;;;27.70;10.53;;;12.90;92.60;;;;;;5038472;28;20234;-92
2022/10/25 02:33:35;;;;;;;22.13;9.43;;;12.90;92.60;;;;;;5038912;28;20555;-92
2022/10/25 02:36:27;;;;;;;22.83;11.20;;;13.00;92.40;;;;;;5040768;28;20651;-92
2022/10/25 02:38:53;;;;;;;21.20;9.87;;;13.00;92.30;;;;;;5034427;28;20219;-92
2022/10/25 02:41:21;;;;;;;19.87;10.77;;;13.00;92.20;;;;;;5038059;28;20200;-91
2022/10/25 02:43:46;;;;;;;24.90;11.20;;;13.00;92.20;;;;;;5038564;28;20631;-92
2022/10/25 02:46:16;;;;;;;19.93;10.83;;;13.00;92.10;;;;;;5040979;28;20176;-91
2022/10/25 02:48:42;;;;;;;24.67;11.47;;;13.00;92.00;;;;;;5040740;28;20274;-92
2022/10/25 02:51:09;;;;;;;31.27;13.47;;;12.90;92.20;;;;;;5040640;28;20692;-92
2022/10/25 02:53:35;;;;;;;24.60;11.50;;;12.90;92.20;;;;;;5039379;28;20183;-92
2022/10/25 02:56:03;;;;;;;27.47;12.20;;;12.90;92.20;;;;;;5039632;28;20229;-92
2022/10/25 02:58:31;;;;;;;22.50;11.83;;;12.90;92.10;;;;;;5037553;28;20200;-92
2022/10/25 03:00:58;;;;;;;27.80;12.47;;;12.90;92.20;;;;;;5037664;28;20200;-92
2022/10/25 03:03:23;;;;;;;21.57;11.60;;;12.90;92.20;;;;;;5038617;28;20183;-92
2022/10/25 03:05:49;;;;;;;19.27;11.67;;;12.90;92.40;;;;;;5041619;28;20550;-92
2022/10/25 03:08:15;;;;;;;18.93;12.20;;;12.90;92.30;;;;;;5038740;28;20525;-92
2022/10/25 03:10:40;;;;;;;18.80;11.60;;;13.00;92.30;;;;;;5039864;28;20199;-93
2022/10/25 03:13:06;;;;;;;21.30;12.10;;;13.00;92.20;;;;;;5038026;28;20653;-92
2022/10/25 03:15:31;;;;;;;22.17;12.67;;;13.00;92.30;;;;;;5037909;28;20355;-92
2022/10/25 03:17:57;;;;;;;25.93;12.30;;;13.00;92.30;;;;;;5037528;28;20215;-92
2022/10/25 03:20:22;;;;;;;24.43;12.27;;;13.00;92.30;;;;;;5037110;28;20179;-92
2022/10/25 03:22:48;;;;;;;19.93;11.73;;;13.00;92.30;;;;;;5037329;28;20191;-92
2022/10/25 03:25:13;;;;;;;19.87;11.00;;;13.10;92.30;;;;;;5037328;28;20172;-92
2022/10/25 03:27:39;;;;;;;22.43;12.47;;;13.10;92.10;;;;;;5038874;28;20187;-92
2022/10/25 03:30:05;;;;;;;22.03;11.90;;;13.20;91.90;;;;;;5038100;28;20187;-92
2022/10/25 03:32:31;;;;;;;22.80;11.77;;;13.20;91.90;;;;;;5037068;28;20196;-92
2022/10/25 03:34:56;;;;;;;25.23;12.43;;;13.20;91.90;;;;;;5037064;28;20180;-92
2022/10/25 03:37:22;;;;;;;25.53;12.03;;;13.20;91.80;;;;;;5037288;28;20190;-92
2022/10/25 03:39:47;;;;;;;22.93;11.73;;;13.20;91.90;;;;;;5037526;28;20172;-92
2022/10/25 03:42:13;;;;;;;22.47;11.20;;;13.20;91.80;;;;;;5038870;28;20550;-91
2022/10/25 03:44:38;;;;;;;22.87;11.90;;;13.20;91.60;;;;;;5038995;28;20187;-92
2022/10/25 03:47:04;;;;;;;22.50;12.67;;;13.20;91.50;;;;;;5039390;28;20211;-93
2022/10/25 03:49:29;;;;;;;25.10;12.37;;;13.20;91.40;;;;;;5039013;28;20553;-92
2022/10/25 03:51:55;;;;;;;22.30;12.63;;;13.20;91.60;;;;;;5040971;28;20199;-92
2022/10/25 03:54:20;;;;;;;24.50;12.40;;;13.20;91.60;;;;;;5040875;28;20180;-92
2022/10/25 03:56:46;;;;;;;29.53;12.57;;;13.20;91.60;;;;;;5040845;28;20183;-92
2022/10/25 03:59:11;;;;;;;21.67;11.70;;;13.20;91.50;;;;;;5040341;28;20204;-91
2022/10/25 04:01:37;;;;;;;22.03;12.20;;;13.20;91.50;;;;;;5040542;28;20195;-92
2022/10/25 04:04:02;;;;;;;20.47;11.20;;;13.20;91.50;;;;;;5041419;28;20182;-91
2022/10/25 04:06:28;;;;;;;27.10;12.10;;;13.30;91.20;;;;;;5041922;28;20176;-92
2022/10/25 04:08:53;;;;;;;24.80;13.73;;;13.30;91.10;;;;;;5041488;28;20176;-92
2022/10/25 04:11:19;;;;;;;19.57;11.70;;;13.20;91.20;;;;;;5040589;28;20196;-92
2022/10/25 04:13:44;;;;;;;28.63;12.77;;;13.20;91.20;;;;;;5041447;28;20266;-92
2022/10/25 04:16:10;;;;;;;22.70;12.10;;;13.20;91.20;;;;;;5041186;28;20204;-92
2022/10/25 04:18:36;;;;;;;21.07;11.67;;;13.20;91.30;;;;;;5042684;28;20258;-91
2022/10/25 04:21:01;;;;;;;23.40;12.43;;;13.20;91.20;;;;;;5041905;28;20192;-92
2022/10/25 04:23:27;;;;;;;23.10;12.57;;;13.20;91.30;;;;;;5041478;28;20180;-91
2022/10/25 04:25:55;;;;;;;24.00;12.13;;;13.20;91.30;;;;;;5040147;28;20180;-92
2022/10/25 04:28:22;;;;;;;23.17;12.50;;;13.20;91.30;;;;;;5042539;28;20204;-91
2022/10/25 04:30:47;;;;;;;22.60;12.43;;;13.20;91.30;;;;;;5041524;28;20654;-92
2022/10/25 04:33:13;;;;;;;24.03;11.83;;;13.20;91.30;;;;;;5040823;28;20254;-92
2022/10/25 04:35:39;;;;;;;23.77;12.47;;;13.20;91.30;;;;;;5040554;28;20620;-92
2022/10/25 04:38:04;;;;;;;28.77;13.30;;;13.20;91.30;;;;;;5040370;28;20195;-92
2022/10/25 04:40:30;;;;;;;26.37;14.03;;;13.20;91.20;;;;;;5040216;28;20176;-92
2022/10/25 04:42:56;;;;;;;25.33;12.37;;;13.20;91.10;;;;;;5040237;28;20262;-91
2022/10/25 04:45:22;;;;;;;28.00;13.63;;;13.20;91.20;;;;;;5041367;28;20287;-91
2022/10/25 04:47:47;;;;;;;26.40;13.13;;;13.20;90.90;;;;;;5040840;28;20184;-92
2022/10/25 04:50:13;;;;;;;23.77;13.30;;;13.20;90.80;;;;;;5039849;28;20204;-92
2022/10/25 04:52:38;;;;;;;27.30;13.57;;;13.10;90.90;;;;;;5039750;28;20203;-92
2022/10/25 04:55:04;;;;;;;23.40;13.90;;;13.10;91.00;;;;;;5040085;28;20183;-92
2022/10/25 04:57:30;;;;;;;23.27;13.07;;;13.10;91.00;;;;;;5039510;28;20199;-91
2022/10/25 04:59:56;;;;;;;24.33;12.43;;;13.10;91.10;;;;;;5039715;28;20199;-91
2022/10/25 05:02:22;;;;;;;24.90;12.97;;;13.10;91.00;;;;;;5038977;28;20553;-92
2022/10/25 05:04:48;;;;;;;27.93;13.10;;;13.10;91.00;;;;;;5039163;28;20168;-92
2022/10/25 05:07:17;;;;;;;23.57;13.10;;;13.00;91.00;;;;;;5038914;28;20234;-91
2022/10/25 05:09:42;;;;;;;24.90;12.93;;;13.00;91.00;;;;;;5039457;28;20184;-92
2022/10/25 05:12:08;;;;;;;26.97;12.67;;;13.00;91.00;;;;;;5039145;28;20254;-91
2022/10/25 05:14:33;;;;;;;28.20;13.77;;;13.00;91.10;;;;;;5039369;28;20167;-91
2022/10/25 05:16:59;;;;;;;26.77;13.70;;;13.00;91.30;;;;;;5039322;28;20538;-91
2022/10/25 05:19:25;;;;;;;20.83;12.90;;;13.00;91.30;;;;;;5039523;28;20234;-91
2022/10/25 05:21:51;;;;;;;25.17;12.30;;;13.00;91.30;;;;;;5038682;28;20199;-92
2022/10/25 05:24:16;;;;;;;28.10;13.40;;;13.10;91.30;;;;;;5038892;28;20180;-91
2022/10/25 05:26:42;;;;;;;26.13;14.50;;;13.00;91.20;;;;;;5038589;28;20594;-92
2022/10/25 05:29:10;;;;;;;23.43;13.50;;;13.10;91.20;;;;;;5038883;28;20604;-91
2022/10/25 05:31:37;;;;;;;25.83;13.33;;;13.10;91.20;;;;;;5038602;28;20200;-91
2022/10/25 05:34:02;;;;;;;24.77;13.70;;;13.10;91.20;;;;;;5039225;28;20192;-91
2022/10/25 05:36:28;;;;;;;31.07;13.73;;;13.10;91.20;;;;;;5039089;28;20191;-91
2022/10/25 05:38:54;;;;;;;26.83;13.47;;;13.20;91.20;;;;;;5038660;28;20680;-91
2022/10/25 05:41:20;;;;;;;25.13;14.40;;;13.10;91.10;;;;;;5038921;28;20241;-91
2022/10/25 05:43:45;;;;;;;21.17;13.10;;;13.20;91.00;;;;;;5039694;28;20203;-91
2022/10/25 05:46:20;;;;;;;23.57;13.57;;;13.20;90.90;;;;;;5039536;28;20175;-91
2022/10/25 05:48:46;;;;;;;23.50;14.17;;;13.20;90.90;;;;;;5039527;28;20270;-91
2022/10/25 05:51:13;;;;;;;26.77;14.57;;;13.20;90.90;;;;;;5038527;28;20286;-91
2022/10/25 05:53:48;;;;;;;34.40;15.17;;;13.20;90.90;;;;;;5038559;28;20530;-89
2022/10/25 05:56:15;;;;;;;23.93;14.70;;;13.20;91.00;;;;;;5037504;28;20205;-91
2022/10/25 05:58:41;;;;;;;24.50;15.73;;;13.20;91.00;;;;;;5039161;28;20211;-91
2022/10/25 06:01:08;;;;;;;30.63;17.60;;;13.30;91.10;;;;;;5038611;28;20253;-91
2022/10/25 06:03:34;;;;;;;27.60;15.00;;;13.20;91.20;;;;;;5038509;28;20176;-91
2022/10/25 06:06:01;;;;;;;22.67;15.10;;;13.20;91.40;;;;;;5038381;28;20530;-91
2022/10/25 06:08:27;;;;;;;26.93;16.17;;;13.20;91.60;;;;;;5038731;28;20544;-91
2022/10/25 06:10:53;;;;;;;27.43;16.70;;;13.20;91.40;;;;;;5038494;28;20731;-91
2022/10/25 06:13:18;;;;;;;26.57;16.70;;;13.20;91.50;;;;;;5037499;28;20176;-91
2022/10/25 06:15:44;;;;;;;23.00;16.17;;;13.30;91.50;;;;;;5037982;28;20176;-91
2022/10/25 06:18:09;;;;;;;27.97;16.87;;;13.20;91.50;;;;;;5037887;28;20632;-91
2022/10/25 06:20:35;;;;;;;24.97;16.77;;;13.20;91.50;;;;;;5037803;28;20545;-90
2022/10/25 06:23:00;;;;;;;30.53;18.53;;;13.20;91.60;;;;;;5037650;28;20179;-90
2022/10/25 06:25:26;;;;;;;30.30;17.60;;;13.20;91.70;;;;;;5037429;28;20630;-90
2022/10/25 06:27:51;;;;;;;31.83;16.67;;;13.20;91.80;;;;;;5037044;28;20183;-89
2022/10/25 06:30:17;;;;;;;30.57;16.70;;;13.20;91.90;;;;;;5039601;28;20188;-90
2022/10/25 06:32:42;;;;;;;28.80;17.77;;;13.30;91.80;;;;;;5037900;28;20211;-91
2022/10/25 06:35:08;;;;;;;24.83;16.03;;;13.30;91.80;;;;;;5037595;28;20195;-90
2022/10/25 06:37:33;;;;;;;28.47;18.03;;;13.30;91.80;;;;;;5037454;28;20203;-91
2022/10/25 06:39:59;;;;;;;33.40;19.27;;;13.30;91.80;;;;;;5037124;28;20172;-91
2022/10/25 06:42:24;;;;;;;32.73;18.47;;;13.30;91.80;;;;;;5037071;28;20196;-92
2022/10/25 06:44:50;;;;;;;32.87;17.70;;;13.30;91.80;;;;;;5037070;28;20172;-91
2022/10/25 06:47:15;;;;;;;28.37;18.33;;;13.30;91.90;;;;;;5037239;28;20183;-91
2022/10/25 06:49:41;;;;;;;29.13;17.30;;;13.30;92.00;;;;;;5037290;28;20199;-90
2022/10/25 06:52:06;;;;;;;29.90;19.07;;;13.30;92.10;;;;;;5036867;28;20214;-91
2022/10/25 06:54:32;;;;;;;30.40;19.10;;;13.30;92.20;;;;;;5037162;28;20180;-91
2022/10/25 06:56:58;;;;;;;31.10;17.90;;;13.30;92.20;;;;;;5037317;28;20172;-91
2022/10/25 06:59:23;;;;;;;31.43;17.80;;;13.30;92.20;;;;;;5037056;28;20265;-91
2022/10/25 07:01:49;;;;;;;29.87;17.60;;;13.40;92.00;;;;;;5036470;28;20246;-90
2022/10/25 07:04:15;;;;;;;28.37;18.47;;;13.40;92.00;;;;;;5037389;28;20263;-91
2022/10/25 07:06:41;;;;;;;32.43;19.33;;;13.40;92.10;;;;;;5036461;28;20634;-91
2022/10/25 07:09:08;;;;;;;30.80;18.63;;;13.40;92.10;;;;;;5036942;28;20184;-91
2022/10/25 07:11:34;;;;;;;35.47;20.43;;;13.50;92.00;;;;;;5036969;28;20252;-91
2022/10/25 07:14:02;;;;;;;29.27;19.03;;;13.40;92.10;;;;;;5036886;28;20278;-91
2022/10/25 07:16:28;;;;;;;35.50;19.57;;;13.40;92.20;;;;;;5036519;28;20183;-91
2022/10/25 07:18:58;;;;;;;35.63;19.27;;;13.50;92.20;;;;;;5036526;28;20302;-91
2022/10/25 07:21:24;;;;;;;34.40;18.70;;;13.50;92.20;;;;;;5036583;28;20193;-91
2022/10/25 07:23:50;;;;;;;28.70;18.67;;;13.50;92.20;;;;;;5036611;28;20175;-91
2022/10/25 07:26:18;;;;;;;29.40;19.93;;;13.50;92.20;;;;;;5035761;28;20665;-91
2022/10/25 07:28:46;;;;;;;28.50;19.00;;;13.40;92.20;;;;;;5036820;28;20216;-91
2022/10/25 07:31:13;;;;;;;27.47;19.60;;;13.40;92.20;;;;;;5036557;28;20203;-91
2022/10/25 07:33:39;;;;;;;27.20;19.37;;;13.50;92.10;;;;;;5036765;28;20216;-91
2022/10/25 07:36:05;;;;;;;34.30;20.03;;;13.50;92.10;;;;;;5036318;28;20198;-91
2022/10/25 07:38:31;;;;;;;32.83;19.17;;;13.50;92.10;;;;;;5036264;28;20204;-91
2022/10/25 07:40:57;;;;;;;29.20;19.13;;;13.40;92.10;;;;;;5036530;28;20565;-91
2022/10/25 07:43:25;;;;;;;29.67;19.30;;;13.50;92.10;;;;;;5043724;28;20179;-91
2022/10/25 07:45:51;;;;;;;34.50;18.57;;;13.50;92.00;;;;;;5039884;28;20179;-91
2022/10/25 07:48:16;;;;;;;31.30;19.03;;;13.50;92.10;;;;;;5035320;28;20179;-91
2022/10/25 07:50:42;;;;;;;26.93;19.17;;;13.50;92.10;;;;;;5036127;28;20186;-91
2022/10/25 07:53:07;;;;;;;29.50;19.17;;;13.60;92.00;;;;;;5035287;28;20183;-90
2022/10/25 07:55:33;;;;;;;32.50;19.77;;;13.60;92.10;;;;;;5053052;28;20176;-90
2022/10/25 07:58:00;;;;;;;26.40;18.00;;;13.60;92.00;;;;;;5053486;28;20539;-91
2022/10/25 08:00:26;;;;;;;31.90;18.30;;;13.70;92.10;;;;;;5052968;28;20168;-91
2022/10/25 08:02:51;;;;;;;26.93;18.77;;;13.70;91.90;;;;;;5035028;28;20188;-91
2022/10/25 08:05:17;;;;;;;27.13;17.87;;;13.70;91.80;;;;;;5052878;28;20177;-91
2022/10/25 08:07:42;;;;;;;28.97;18.00;;;13.80;91.70;;;;;;5035436;28;20234;-91
2022/10/25 08:10:08;;;;;;;30.97;17.67;;;13.80;91.80;;;;;;5052982;28;20682;-91
2022/10/25 08:12:34;;;;;;;35.03;18.20;;;13.80;91.60;;;;;;5052842;28;20245;-91
2022/10/25 08:14:59;;;;;;;31.07;19.50;;;13.90;91.50;;;;;;5053151;28;20176;-91
2022/10/25 08:17:25;;;;;;;33.30;20.30;;;13.90;91.60;;;;;;5035019;28;20526;-91
2022/10/25 08:19:51;;;;;;;23.90;18.37;;;13.80;91.50;;;;;;5052959;28;20196;-92
2022/10/25 08:22:19;;;;;;;31.43;18.83;;;13.90;91.40;;;;;;5035276;28;20200;-92
2022/10/25 08:24:45;;;;;;;30.87;18.57;;;13.90;91.50;;;;;;5053179;28;20262;-91
2022/10/25 08:27:10;;;;;;;29.57;18.40;;;14.00;91.30;;;;;;5035123;28;20530;-91
2022/10/25 08:29:36;;;;;;;36.27;19.97;;;13.90;91.30;;;;;;5035167;28;20198;-90
2022/10/25 08:32:01;;;;;;;32.40;18.33;;;14.00;91.40;;;;;;5047000;28;20204;-92
2022/10/25 08:34:27;;;;;;;30.97;17.70;;;14.00;91.30;;;;;;5050479;28;20180;-92
2022/10/25 08:36:52;;;;;;;24.03;17.57;;;14.00;91.30;;;;;;5050726;28;20662;-92
2022/10/25 08:39:18;;;;;;;28.92;16.38;;;14.00;91.30;;;;;;5040759;28;20214;-92
2022/10/25 08:41:52;;;;;;;31.90;15.63;;;14.00;91.30;;;;;;5056355;28;20203;-91
2022/10/25 08:44:39;;;;;;;29.43;15.97;;;14.10;91.20;;;;;;5056668;28;20605;-91
2022/10/25 08:47:09;;;;;;;27.80;15.27;;;14.20;91.10;;;;;;5056303;28;20248;-91
2022/10/25 08:49:45;;;;;;;23.27;14.00;;;14.20;90.70;;;;;;5056610;28;20685;-92
2022/10/25 08:52:39;;;;;;;26.17;13.60;;;14.20;90.40;;;;;;5038425;28;20204;-91
2022/10/25 08:55:14;;;;;;;21.53;13.97;;;14.30;90.40;;;;;;5056266;28;20161;-92
2022/10/25 08:57:45;;;;;;;21.33;13.87;;;14.40;90.20;;;;;;5038365;28;20214;-92
2022/10/25 09:00:16;;;;;;;26.27;13.50;;;14.50;89.80;;;;;;5038781;28;20160;-92
2022/10/25 09:02:47;;;;;;;23.43;12.90;;;14.50;89.70;;;;;;5038155;28;20193;-92
2022/10/25 09:05:19;;;;;;;40.30;12.68;;;14.70;89.60;;;;;;5038453;28;20208;-90
2022/10/25 09:07:56;;;;;;;21.57;11.00;;;14.70;88.90;;;;;;5055885;28;20156;-91
2022/10/25 09:10:45;;;;;;;19.20;10.37;;;14.70;88.30;;;;;;5056032;28;20180;-91
2022/10/25 09:13:35;;;;;;;20.13;10.47;;;14.70;88.20;;;;;;5055719;28;20152;-91
2022/10/25 09:16:16;;;;;;;23.10;11.65;;;14.80;88.50;;;;;;5037904;28;20178;-91
2022/10/25 09:18:50;;;;;;;24.48;10.43;;;14.80;88.20;;;;;;5055438;28;20563;-91
2022/10/25 09:21:42;;;;;;;19.48;9.95;;;14.80;88.20;;;;;;5055456;28;20282;-91
2022/10/25 09:24:26;;;;;;;23.95;9.57;;;14.90;87.60;;;;;;5055862;28;20156;-92
2022/10/25 09:27:13;;;;;;;15.88;8.30;;;14.90;88.00;;;;;;5055781;28;20218;-91
2022/10/25 09:29:45;;;;;;;25.92;9.82;;;14.80;87.80;;;;;;5055399;28;20156;-91
2022/10/25 09:32:30;;;;;;;19.02;8.55;;;14.80;87.50;;;;;;5055979;28;20242;-91
2022/10/25 09:34:56;;;;;;;22.55;8.15;;;14.90;87.90;;;;;;5037594;28;20634;-91
2022/10/25 09:37:30;;;;;;;16.88;8.15;;;14.90;87.40;;;;;;5038261;28;20218;-91
2022/10/25 09:40:00;;;;;;;18.83;8.05;;;14.80;87.30;;;;;;5055251;28;20156;-91
2022/10/25 09:42:33;;;;;;;21.27;7.50;;;14.80;87.30;;;;;;5055113;28;20287;-91
2022/10/25 09:45:13;;;;;;;26.77;8.85;;;14.80;86.80;;;;;;5055612;28;20266;-91
2022/10/25 09:47:46;;;;;;;17.58;7.78;;;14.90;87.30;;;;;;5054085;28;20239;-92
2022/10/25 09:50:23;;;;;;;20.92;8.68;;;14.80;87.40;;;;;;5054986;28;20595;-91
2022/10/25 09:53:11;;;;;;;17.40;8.18;;;15.00;87.70;;;;;;5037166;28;20246;-91
2022/10/25 09:55:42;;;;;;;19.73;8.27;;;15.20;87.70;;;;;;5055536;28;20152;-91
2022/10/25 09:58:16;;;;;;;15.52;7.40;;;15.20;87.50;;;;;;5036925;28;20204;-92
2022/10/25 10:00:42;;;;;;;12.82;6.82;;;15.20;86.60;;;;;;5054824;28;20664;-91
2022/10/25 10:03:11;;;;;;;15.85;7.72;;;15.10;86.50;;;;;;5055030;28;20176;-91
2022/10/25 10:05:38;;;;;;;16.77;7.68;;;15.00;86.20;;;;;;5038166;28;20523;-91
2022/10/25 10:08:04;;;;;;;24.45;7.78;;;15.10;86.50;;;;;;5037668;28;20657;-91
2022/10/25 10:10:34;;;;;;;16.42;8.48;;;15.30;86.80;;;;;;5036737;28;20658;-91
2022/10/25 10:12:59;;;;;;;24.33;8.07;;;15.40;86.50;;;;;;5054637;28;20211;-91
2022/10/25 10:15:37;;;;;;;17.60;7.65;;;15.50;86.20;;;;;;5036783;28;20588;-91
2022/10/25 10:18:22;;;;;;;17.20;7.05;;;15.40;86.00;;;;;;5036537;28;20237;-91
2022/10/25 10:21:06;;;;;;;16.23;7.55;;;15.30;86.30;;;;;;5054419;28;20168;-90
2022/10/25 10:23:55;;;;;;;17.70;7.07;;;15.40;86.50;;;;;;5036756;28;20669;-91
2022/10/25 10:26:32;;;;;;;17.40;7.60;;;15.50;85.80;;;;;;5040344;28;20230;-91
2022/10/25 10:29:20;;;;;;;21.38;8.27;;;15.40;85.60;;;;;;5036643;28;20175;-91
2022/10/25 10:31:49;;;;;;;23.13;8.05;;;15.50;86.10;;;;;;5054278;28;20275;-91
2022/10/25 10:34:34;;;;;;;13.95;7.82;;;15.50;86.10;;;;;;5054273;28;20580;-91
2022/10/25 10:37:09;;;;;;;16.50;7.82;;;15.60;86.40;;;;;;5036519;28;20176;-91
2022/10/25 10:39:34;;;;;;;18.40;7.47;;;15.70;86.20;;;;;;5037357;28;20711;-92
2022/10/25 10:42:13;;;;;;;17.17;7.35;;;15.70;85.50;;;;;;5036262;28;20196;-91
2022/10/25 10:44:39;;;;;;;16.67;6.90;;;15.80;85.60;;;;;;5036388;28;20635;-93
2022/10/25 10:47:18;;;;;;;13.52;7.75;;;15.80;85.40;;;;;;5036284;28;20188;-90
2022/10/25 10:49:44;;;;;;;19.88;7.68;;;15.70;85.20;;;;;;5054283;28;20171;-92
2022/10/25 10:52:29;;;;;;;12.57;6.80;;;15.70;85.70;;;;;;5036047;28;20610;-90
2022/10/25 10:54:55;;;;;;;16.42;6.65;;;15.80;85.40;;;;;;5036173;28;20169;-89
2022/10/25 10:57:30;;;;;;;18.30;6.60;;;16.20;85.20;;;;;;5036120;28;20259;-92
2022/10/25 10:59:57;;;;;;;17.05;5.50;;;16.30;84.00;;;;;;5035900;28;20222;-91
2022/10/25 11:02:27;;;;;;;17.83;5.32;;;16.30;82.70;;;;;;5035873;28;20575;-91
2022/10/25 11:04:54;;;;;;;11.02;4.50;;;16.30;81.70;;;;;;5053952;28;20160;-92
2022/10/25 11:07:32;;;;;;;12.40;4.45;;;16.30;80.80;;;;;;5053798;28;20214;-91
2022/10/25 11:10:17;;;;;;;11.18;4.00;;;16.40;80.10;;;;;;5053696;28;20183;-92
2022/10/25 11:12:43;;;;;;;13.85;4.32;;;16.50;80.50;;;;;;5035713;28;20203;-91
2022/10/25 11:15:13;;;;;;;14.55;4.22;;;16.40;79.50;;;;;;5053547;28;20172;-91
2022/10/25 11:17:47;;;;;;;13.63;4.30;;;16.40;79.70;;;;;;5035613;28;20187;-91
2022/10/25 11:20:48;;;;;;;12.68;3.75;;;16.80;79.50;;;;;;5035834;28;20187;-91
2022/10/25 11:23:36;;;;;;;16.60;3.83;;;17.00;79.40;;;;;;5031695;28;20187;-91
2022/10/25 11:26:12;;;;;;;10.20;3.38;;;16.70;78.30;;;;;;5053809;28;20212;-91
2022/10/25 11:29:17;;;;;;;8.75;3.65;;;16.60;79.10;;;;;;5035935;28;20237;-92
2022/10/25 11:31:59;;;;;;;13.40;4.00;;;16.50;77.70;;;;;;5035049;28;20735;-89
2022/10/25 11:34:43;;;;;;;10.70;4.07;;;16.80;78.90;;;;;;5036100;28;20267;-91
2022/10/25 11:37:21;;;;;;;13.70;3.92;;;17.00;77.50;;;;;;5053670;28;20242;-91
2022/10/25 11:40:00;;;;;;;10.43;3.28;;;17.00;77.60;;;;;;5035404;28;20241;-91
2022/10/25 11:42:40;;;;;;;10.60;3.85;;;17.20;77.20;;;;;;5035194;28;20191;-90
2022/10/25 11:45:41;;;;;;;10.20;3.22;;;17.40;77.00;;;;;;5053182;28;20242;-91
2022/10/25 11:48:51;;;;;;;12.40;4.45;;;17.70;75.80;;;;;;5035396;28;20175;-92
2022/10/25 11:51:58;;;;;;;13.75;3.45;;;17.90;75.10;;;;;;5036033;28;20223;-91
2022/10/25 11:54:43;;;;;;;15.75;3.85;;;17.70;75.60;;;;;;5024453;28;20681;-90
2022/10/25 11:57:35;;;;;;;13.60;3.92;;;18.00;76.80;;;;;;5053054;28;20164;-90
2022/10/25 12:00:23;;;;;;;14.93;4.47;;;17.90;75.20;;;;;;5053313;28;20160;-90
2022/10/25 12:03:01;;;;;;;7.82;3.45;;;17.90;75.70;;;;;;5035249;28;20196;-91
2022/10/25 12:05:27;;;;;;;8.68;3.03;;;17.80;74.00;;;;;;5053638;28;20157;-92
2022/10/25 12:08:11;;;;;;;10.68;3.92;;;17.60;74.20;;;;;;5037002;28;20182;-91
2022/10/25 12:10:45;;;;;;;14.52;3.75;;;17.70;75.30;;;;;;5035346;28;20202;-90
2022/10/25 12:13:19;;;;;;;9.18;3.55;;;16.90;76.20;;;;;;5039464;28;20195;-90
2022/10/25 12:15:48;;;;;;;11.98;3.90;;;16.80;77.90;;;;;;5039245;28;20229;-91
2022/10/25 12:18:40;;;;;;;13.85;4.13;;;16.70;77.60;;;;;;5056808;28;20695;-91
2022/10/25 12:21:08;;;;;;;9.73;3.13;;;16.60;77.10;;;;;;5028750;28;20204;-91
2022/10/25 12:23:48;;;;;;;12.52;3.63;;;16.90;77.90;;;;;;5038871;28;20604;-91
2022/10/25 12:26:33;;;;;;;11.07;3.97;;;17.20;76.80;;;;;;5038989;28;20173;-91
2022/10/25 12:29:04;;;;;;;16.13;3.75;;;17.20;75.80;;;;;;5039034;28;20176;-92
2022/10/25 12:31:48;;;;;;;11.82;4.65;;;17.50;76.40;;;;;;5039567;28;20196;-92
2022/10/25 12:34:37;;;;;;;16.77;3.80;;;17.80;75.10;;;;;;5039225;28;20705;-93
2022/10/25 12:37:09;;;;;;;11.82;3.72;;;17.80;75.60;;;;;;5040017;28;20180;-91
2022/10/25 12:39:40;;;;;;;14.70;3.85;;;17.70;75.00;;;;;;5038716;28;20206;-91
2022/10/25 12:42:17;;;;;;;12.90;4.95;;;17.20;74.30;;;;;;5056499;28;20271;-91
2022/10/25 12:45:22;;;;;;;13.80;3.67;;;16.60;76.30;;;;;;5039205;28;20270;-91
2022/10/25 12:48:06;;;;;;;13.02;3.72;;;16.80;75.90;;;;;;5039265;28;20184;-92
2022/10/25 12:51:09;;;;;;;9.48;3.85;;;17.10;75.30;;;;;;5038776;28;20249;-91
2022/10/25 12:54:14;;;;;;;8.45;3.53;;;17.30;74.70;;;;;;5038858;28;20195;-91
2022/10/25 12:57:13;;;;;;;11.23;3.58;;;17.40;74.00;;;;;;5039246;28;20171;-91
2022/10/25 13:00:09;;;;;;;12.30;4.03;;;17.60;75.00;;;;;;5038864;28;20188;-91
2022/10/25 13:03:05;;;;;;;13.77;3.97;;;17.40;74.00;;;;;;5056610;28;20624;-92
2022/10/25 13:06:07;;;;;;;12.55;4.20;;;16.70;74.70;;;;;;5038630;28;20670;-91
2022/10/25 13:08:33;;;;;;;8.80;3.35;;;16.50;75.70;;;;;;5038592;28;20278;-91
2022/10/25 13:11:02;;;;;;;15.65;3.95;;;16.30;75.90;;;;;;5038488;28;20196;-91
2022/10/25 13:13:32;;;;;;;12.02;3.78;;;16.20;76.30;;;;;;5038400;28;20211;-91
2022/10/25 13:16:00;;;;;;;14.55;3.92;;;16.20;77.20;;;;;;5039676;28;20623;-92
2022/10/25 13:18:38;;;;;;;16.23;4.20;;;16.30;77.00;;;;;;5038415;28;20231;-90
2022/10/25 13:21:12;;;;;;;13.07;3.42;;;16.50;76.70;;;;;;5038114;28;20254;-90